Howe, Nebraska
Current Conditions -  °F | °C
As of 2:15 AM on Monday 26 Jan 2015 (Local Time) from KAFK Reporting Station
Clear Clear  
Wind Chill: 18°   Ceiling: Unl
Heat Index: 26°   Visibility: 10mi
Dew Point: 25°   Wind: 8mph
Humidity: 97%   Direction: 210°SSW
Pressure: 30.03"   Gusts: NA
Location:  40.3314°N, 95.8994°W
Report Text: KAFK 260815Z AUTO 21007KT 10SM CLR M03/M04 A3003 RMK AO2 T10331037
Loading
Personal Weather Stations






























Interactive Weather Map New forecast layout! Learn more

10-Day Weather Forecast

Advertisements
Track Severe Weather on mobile